»·PEaware :: UAL1399 KEUG-KPDX

UAL1399 :: KEUG-KPDX

FLIGHT INFORMATION

Flight Status: Arrived
Operator:
United Airlines
More flights by this operator :: More flights under this callsign
Pilot: David C. (16084)
Aircraft: SAAB 340
(SF34)
More flights by this aircraft type
Origin: KEUG Mahlon Sweet
United States
Destination: KPDX Portland Intl
United States
More flights between these airports :: More routes between these airports
Route: +EUG9 CITYY TMBRS2
File this flight plan on PilotEdge
Remarks:
Altitude:
(Current/Filed)
13,000ft
Speed:
(Current/Filed)
283kts
Departed: 17-Jul-18 09:25 AM
Arrived: 17-Jul-18 10:00 AM
Distance/Time
Traveled:
92nm/0:35
Distance/Time
To Go:
Arrived

Flight Plot

Page will automatically refresh every two minutes.

Flight plan parsing failed; only flown route is shown


Map Options




Map Legend


Flown Route
Filed Route
Departure Airport
Arrival Airport
Navaid (VOR, NDB)
Fix

Horizontal Profiles

Position Reports

Time Latitude Longitude Heading Altitude Ground
Speed
17-Jul-18 09:04 44.120158 -123.213370 304 379ft 0kts
17-Jul-18 09:05 44.120158 -123.213370 304 379ft 0kts
17-Jul-18 09:06 44.120158 -123.213370 304 379ft 0kts
17-Jul-18 09:07 44.120158 -123.213370 304 379ft 0kts
17-Jul-18 09:08 44.120158 -123.213370 304 379ft 0kts
17-Jul-18 09:09 44.120158 -123.213370 304 379ft 0kts
17-Jul-18 09:10 44.120158 -123.213370 304 379ft 0kts
17-Jul-18 09:11 44.120158 -123.213370 304 379ft 0kts
17-Jul-18 09:12 44.120158 -123.213370 304 379ft 0kts
17-Jul-18 09:13 44.120158 -123.213370 304 379ft 0kts
17-Jul-18 09:14 44.120158 -123.213370 304 379ft 0kts
17-Jul-18 09:15 44.120158 -123.213370 304 379ft 0kts
17-Jul-18 09:16 44.120158 -123.213370 304 379ft 0kts
17-Jul-18 09:17 44.120158 -123.213370 304 379ft 0kts
17-Jul-18 09:18 44.120158 -123.213370 304 379ft 0kts
17-Jul-18 09:19 44.120158 -123.213370 304 379ft 0kts
17-Jul-18 09:20 44.120158 -123.213370 304 379ft 0kts
17-Jul-18 09:21 44.122443 -123.215345 328 379ft 21kts
17-Jul-18 09:22 44.128881 -123.217127 358 379ft 29kts
17-Jul-18 09:23 44.135277 -123.217889 275 379ft 1kts
17-Jul-18 09:24 44.135277 -123.217891 275 379ft 0kts
17-Jul-18 09:25 44.135300 -123.218303 273 379ft 7kts
17-Jul-18 09:26 44.117346 -123.218175 176 849ft 152kts
17-Jul-18 09:27 44.068864 -123.212769 176 3203ft 181kts
17-Jul-18 09:28 44.018295 -123.206461 176 5579ft 187kts
17-Jul-18 09:29 43.967518 -123.192505 131 7625ft 202kts
17-Jul-18 09:30 43.994072 -123.136545 24 9604ft 206kts
17-Jul-18 09:31 44.045738 -123.100432 24 11327ft 212kts
17-Jul-18 09:32 44.100803 -123.069049 18 12824ft 218kts
17-Jul-18 09:33 44.163048 -123.034060 18 13005ft 263kts
17-Jul-18 09:34 44.233029 -122.994530 19 13000ft 279kts
17-Jul-18 09:35 44.305692 -122.953396 19 12999ft 284kts
17-Jul-18 09:36 44.379132 -122.911710 19 12999ft 286kts
17-Jul-18 09:37 44.453036 -122.870866 17 13000ft 287kts
17-Jul-18 09:38 44.527697 -122.831865 17 12993ft 287kts
17-Jul-18 09:39 44.602504 -122.792732 17 12985ft 287kts
17-Jul-18 09:40 44.677126 -122.753603 17 12982ft 286kts
17-Jul-18 09:41 44.749610 -122.715470 17 12982ft 286kts
17-Jul-18 09:42 44.825389 -122.686746 0 12997ft 282kts
17-Jul-18 09:43 44.902404 -122.678478 0 12231ft 271kts
17-Jul-18 09:44 44.979804 -122.670652 0 11184ft 281kts
17-Jul-18 09:45 45.052864 -122.663231 1 10111ft 251kts
17-Jul-18 09:46 45.121520 -122.656211 2 9123ft 248kts
17-Jul-18 09:47 45.189986 -122.649164 2 8124ft 245kts
17-Jul-18 09:48 45.256698 -122.636754 31 7162ft 244kts
17-Jul-18 09:49 45.311622 -122.587167 30 6212ft 244kts
17-Jul-18 09:50 45.368704 -122.535828 30 5218ft 244kts
17-Jul-18 09:51 45.424116 -122.485861 31 4986ft 222kts
17-Jul-18 09:52 45.422704 -122.414721 114 4992ft 172kts
17-Jul-18 09:53 45.402933 -122.357199 92 4001ft 147kts
17-Jul-18 09:54 45.430338 -122.325980 25 3100ft 156kts
17-Jul-18 09:55 45.468944 -122.331731 326 2992ft 159kts
17-Jul-18 09:56 45.498228 -122.360098 325 2988ft 147kts
17-Jul-18 09:57 45.520061 -122.404508 299 2621ft 153kts
17-Jul-18 09:58 45.540553 -122.456769 299 1858ft 137kts
17-Jul-18 09:59 45.559268 -122.504624 299 1081ft 135kts
17-Jul-18 10:00 45.580305 -122.558468 299 246ft 132kts
17-Jul-18 10:01 45.590245 -122.585470 281 34ft 24kts
17-Jul-18 10:02 45.590300 -122.586440 270 34ft 0kts

Navigation Log

Ident Type
Flight plan parsing failed, navigation log unavailable